»·PEaware :: N312YB KSNA-KFAT

N312YB :: KSNA-KFAT

FLIGHT INFORMATION

Flight Status: Arrived
Operator: Privately registered:
United States
More flights under this callsign
Pilot: Tanner H. (27250)
Aircraft: Cessna 700 Citation Longitude
(C700)
More flights by this aircraft type
Origin: KSNA John Wayne-Orange Co
United States
Destination: KFAT Fresno Yosemite Intl
United States
More flights between these airports :: More routes between these airports
Route: +MUSEL8 SLI LHS TTE ALTTA9
File this flight plan on PilotEdge
Remarks:
Altitude:
(Current/Filed)
28,000ft
Speed:
(Current/Filed)
450kts
Departed: 06-Sep-20 09:06 AM
Arrived: 06-Sep-20 09:51 AM
Distance/Time
Traveled:
207nm/0:45
Distance/Time
To Go:
Arrived

Flight Plot

Page will automatically refresh every two minutes.

Flight plan parsing failed; only flown route is shown


Map Options




Map Legend


Flown Route
Filed Route
Departure Airport
Arrival Airport
Navaid (VOR, NDB)
Fix

Horizontal Profiles

Position Reports

Time Latitude Longitude Heading Altitude Ground
Speed
06-Sep-20 08:58 33.672672 -117.866291 18 53ft 0kts
06-Sep-20 08:59 33.672672 -117.866291 18 53ft 0kts
06-Sep-20 09:00 33.672672 -117.866291 18 53ft 0kts
06-Sep-20 09:01 33.672672 -117.866291 18 53ft 0kts
06-Sep-20 09:02 33.672672 -117.866291 18 53ft 0kts
06-Sep-20 09:03 33.674129 -117.867076 22 58ft 14kts
06-Sep-20 09:04 33.679582 -117.863629 29 45ft 6kts
06-Sep-20 09:05 33.681367 -117.864723 287 41ft 28kts
06-Sep-20 09:06 33.668852 -117.873400 208 199ft 197kts
06-Sep-20 09:07 33.600952 -117.894641 186 4230ft 235kts
06-Sep-20 09:08 33.528467 -117.922950 211 6357ft 308kts
06-Sep-20 09:08 33.497081 -117.995500 252 9608ft 297kts
06-Sep-20 09:10 33.463012 -118.106218 276 13631ft 317kts
06-Sep-20 09:11 33.524568 -118.148658 33 15840ft 299kts
06-Sep-20 09:12 33.592410 -118.085992 22 19698ft 320kts
06-Sep-20 09:12 33.666863 -118.072196 4 22637ft 333kts
06-Sep-20 09:13 33.757657 -118.058374 5 25725ft 348kts
06-Sep-20 09:15 33.866601 -118.100407 325 27886ft 408kts
06-Sep-20 09:15 33.958530 -118.153901 335 27946ft 462kts
06-Sep-20 09:16 34.074975 -118.221891 335 27960ft 469kts
06-Sep-20 09:17 34.185632 -118.286634 335 27972ft 461kts
06-Sep-20 09:18 34.297318 -118.351730 334 27985ft 455kts
06-Sep-20 09:19 34.410711 -118.417771 334 27997ft 452kts
06-Sep-20 09:20 34.524790 -118.484345 334 28013ft 460kts
06-Sep-20 09:21 34.641010 -118.552363 333 28027ft 467kts
06-Sep-20 09:22 34.762837 -118.605248 348 28032ft 467kts
06-Sep-20 09:23 34.856478 -118.639879 343 28038ft 465kts
06-Sep-20 09:24 34.979918 -118.683618 342 28036ft 463kts
06-Sep-20 09:25 35.103186 -118.727350 342 28042ft 462kts
06-Sep-20 09:26 35.226452 -118.771419 342 28033ft 463kts
06-Sep-20 09:27 35.348158 -118.815175 342 27050ft 441kts
06-Sep-20 09:28 35.462395 -118.856453 342 25234ft 420kts
06-Sep-20 09:29 35.574305 -118.897111 343 24025ft 428kts
06-Sep-20 09:30 35.685175 -118.936922 346 22861ft 418kts
06-Sep-20 09:31 35.792773 -118.977298 344 21892ft 402kts
06-Sep-20 09:32 35.894845 -119.014988 342 20151ft 372kts
06-Sep-20 09:33 35.989212 -119.059000 340 18270ft 349kts
06-Sep-20 09:34 36.076280 -119.099780 338 16134ft 324kts
06-Sep-20 09:35 36.158253 -119.138458 338 14024ft 305kts
06-Sep-20 09:36 36.237394 -119.176036 338 14002ft 311kts
06-Sep-20 09:37 36.309432 -119.210362 338 13998ft 229kts
06-Sep-20 09:38 36.359110 -119.234127 338 14000ft 176kts
06-Sep-20 09:39 36.405248 -119.256181 338 13943ft 186kts
06-Sep-20 09:40 36.454748 -119.279879 338 10522ft 189kts
06-Sep-20 09:41 36.500487 -119.301830 338 7377ft 176kts
06-Sep-20 09:42 36.547733 -119.325474 325 5416ft 184kts
06-Sep-20 09:43 36.586320 -119.384674 299 4037ft 274kts
06-Sep-20 09:44 36.619632 -119.443285 304 3987ft 178kts
06-Sep-20 09:45 36.648647 -119.493724 304 3987ft 177kts
06-Sep-20 09:46 36.677213 -119.543533 304 3429ft 180kts
06-Sep-20 09:47 36.706334 -119.594346 304 2443ft 180kts
06-Sep-20 09:48 36.734575 -119.643671 304 1522ft 169kts
06-Sep-20 09:49 36.761722 -119.691128 304 641ft 167kts
06-Sep-20 09:50 36.776365 -119.717439 281 336ft 17kts
06-Sep-20 09:51 36.776533 -119.719151 275 330ft 0kts
06-Sep-20 09:52 36.775714 -119.720769 174 331ft 12kts
06-Sep-20 09:53 36.775471 -119.723365 305 332ft 8kts
06-Sep-20 09:54 36.775790 -119.725527 304 332ft 0kts
06-Sep-20 09:55 36.775790 -119.725527 304 332ft 0kts
06-Sep-20 09:56 36.775790 -119.725527 304 332ft 0kts
06-Sep-20 09:57 36.775790 -119.725527 304 332ft 0kts
06-Sep-20 09:58 36.775790 -119.725527 304 332ft 0kts
06-Sep-20 09:59 36.775790 -119.725527 304 332ft 0kts
06-Sep-20 10:00 36.775790 -119.725527 304 332ft 0kts
06-Sep-20 10:01 36.775790 -119.725527 304 332ft 0kts
06-Sep-20 10:02 36.775790 -119.725527 304 332ft 0kts
06-Sep-20 10:03 36.775790 -119.725527 304 332ft 0kts
06-Sep-20 10:04 36.775790 -119.725527 304 332ft 0kts
06-Sep-20 10:05 36.775790 -119.725527 304 332ft 0kts

Navigation Log

Ident Type
Flight plan parsing failed, navigation log unavailable